Flight Track Log - Related Links

Times and Time Zones

All times are in EDT time to prevent confusion due to time zone crossing. See the UPS1121 flight status page for this flight to view local times or setup timezone preferences in your user account.

Time Position Orientation Groundspeed Altitude Reporting Facility
EDT Latitude Longitude Course Direction KTS MPH feet Rate Location/Type
Wed 09:58:51 PM 42.7361 -73.8111 167° South 147 169 1,600  Level Boston Center
Wed 09:59:21 PM 42.7172 -73.8050 167° South 151 174 2,400 1,756 Climbing Boston Center
Wed 10:00:13 PM 42.6761 -73.7617 142° Southeast 248 285 4,000 2,679 Climbing Boston Center
Wed 10:01:13 PM 42.6231 -73.6703 128° Southeast 311 358 7,400 2,900 Climbing Boston Center
Wed 10:02:13 PM 42.5697 -73.5761 128° Southeast 332 382 9,800 1,800 Climbing Boston Center
Wed 10:03:13 PM 42.5125 -73.4794 129° Southeast 332 382 11,000 600 Climbing Boston Center
Wed 10:04:13 PM 42.4486 -73.3856 133° Southeast 332 382 11,000  Level Boston Center
Wed 10:04:36 PM 42.4197 -73.3514 139° Southeast 332 382 11,000  Level Boston Center
Wed 10:05:13 PM 42.3847 -73.2975 131° Southeast 327 376 11,000  Level Boston Center
Wed 10:05:37 PM 42.3578 -73.2606 135° Southeast 332 382 11,000 -100 Level Boston Center
Wed 10:06:13 PM 42.3250 -73.1983 125° Southeast 332 382 10,900 -700 Descending Boston Center
Wed 10:06:37 PM 42.3044 -73.1558 123° Southeast 341 392 10,300 -1,482 Descending Boston Center
Wed 10:07:38 PM 42.2656 -73.0433 115° Southeast 335 386 8,800 -1,672 Descending Boston Center
Wed 10:08:39 PM 42.2283 -72.9308 114° Southeast 329 379 6,900 -2,083 Descending Boston Center
Wed 10:09:39 PM 42.1956 -72.8211 112° Southeast 314 361 4,600 -1,370 Descending Boston Center
Wed 10:10:46 PM 42.1814 -72.6950 99° East 292 336 4,000 -298 Descending Boston Center
Wed 10:11:40 PM 42.1753 -72.6167 96° East 252 290 4,000 1,774 Level Boston Center
Wed 10:12:41 PM 42.2314 -72.6056 North 235 270 7,400 3,143 Climbing Boston Center
Wed 10:13:25 PM 42.2647 -72.6589 310° West 240 276 9,500 2,361 Climbing Boston Center
Wed 10:13:42 PM 42.2731 -72.6786 300° West 233 268 9,800 500 Climbing Boston Center
Wed 10:14:25 PM 42.3000 -72.7236 309° West 255 293 10,000 117 Climbing Boston Center
Wed 10:15:25 PM 42.3458 -72.7772 319° Northwest 249 287 10,000 1,622 Level Boston Center
Wed 10:21:23 PM 42.5880 -73.3510 319° Northwest 379 436 21,300 1,954 Climbing FlightAware ADS-B
Wed 10:21:58 PM 42.6050 -73.4290 287° West 385 443 22,800 1,684 Climbing FlightAware ADS-B
Wed 10:23:17 PM 42.6410 -73.6030 286° West 394 453 24,500 879 Climbing FlightAware ADS-B
Wed 10:23:54 PM 42.6550 -73.6790 284° West 394 453 24,500  Level FlightAware ADS-B
Wed 10:24:42 PM 42.6750 -73.7760 286° West 394 453 24,500  Level FlightAware ADS-B
Wed 10:25:18 PM 42.6890 -73.8500 284° West 394 453 24,500  Level FlightAware ADS-B
Wed 10:26:06 PM 42.7080 -73.9470 285° West 394 453 24,500 3,134 Level FlightAware ADS-B
Wed 10:26:25 PM 42.7389 -74.0711 285° West 406 467 28,000 1,905 Climbing Boston Center
Wed 10:32:05 PM 42.8010 -74.9730 285° West 423 487 35,900 1,347 Climbing FlightAware ADS-B
Wed 10:32:48 PM 42.8030 -75.0780 272° West 423 487 36,600 545 Climbing FlightAware ADS-B
Wed 10:33:33 PM 42.7990 -75.1780 267° West 423 487 36,700 1,259 Climbing FlightAware ADS-B
Wed 10:34:09 PM 42.7770 -75.3080 257° West 425 489 38,300 1,902 Climbing FlightAware ADS-B
Wed 10:34:55 PM 42.7590 -75.4340 259° West 427 491 39,300 1,186 Climbing FlightAware ADS-B
Wed 10:35:35 PM 42.7450 -75.5400 260° West 429 494 40,000 532 Climbing FlightAware ADS-B
Wed 10:36:14 PM 42.7310 -75.6420 259° West 425 489 40,000  Level FlightAware ADS-B
Wed 10:37:02 PM 42.7140 -75.7560 259° West 422 486 40,000  Level FlightAware ADS-B
Wed 10:37:42 PM 42.6990 -75.8630 259° West 422 486 40,000  Level FlightAware ADS-B
Wed 10:38:24 PM 42.6830 -75.9810 260° West 425 489 40,000  Level FlightAware ADS-B
Wed 10:39:02 PM 42.6690 -76.0720 258° West 425 489 40,000  Level FlightAware ADS-B
Wed 10:39:44 PM 42.6530 -76.1880 259° West 427 491 40,000  Level FlightAware ADS-B
Wed 10:40:29 PM 42.6350 -76.3070 258° West 428 493 40,000  Level FlightAware ADS-B
Wed 10:41:13 PM 42.6210 -76.4060 259° West 429 494 40,000  Level FlightAware ADS-B
Wed 10:42:03 PM 42.6010 -76.5360 258° West 430 495 40,000  Level FlightAware ADS-B
Wed 10:43:06 PM 42.5730 -76.7280 259° West 431 496 40,000  Level FlightAware ADS-B
Wed 10:43:43 PM 42.5610 -76.8060 258° West 431 496 40,000  Level FlightAware ADS-B
Wed 10:44:26 PM 42.5410 -76.9370 258° West 433 498 40,000  Level FlightAware ADS-B
Wed 10:45:08 PM 42.5240 -77.0520 259° West 433 498 40,000  Level FlightAware ADS-B
Wed 10:45:48 PM 42.5080 -77.1540 258° West 434 499 40,000  Level FlightAware ADS-B
Wed 10:47:03 PM 42.4760 -77.3620 258° West 434 499 40,000  Level FlightAware ADS-B
Wed 10:47:43 PM 42.4600 -77.4680 258° West 433 498 40,000  Level FlightAware ADS-B
Wed 10:48:25 PM 42.4430 -77.5760 258° West 431 496 40,000  Level FlightAware ADS-B
Wed 10:49:04 PM 42.4280 -77.6680 258° West 430 495 40,000  Level FlightAware ADS-B
Wed 10:50:07 PM 42.4010 -77.8370 258° West 425 489 40,000  Level FlightAware ADS-B
Wed 10:50:47 PM 42.3830 -77.9500 258° West 421 484 40,000  Level FlightAware ADS-B
Wed 10:51:27 PM 42.3660 -78.0510 257° West 421 484 40,000  Level FlightAware ADS-B
Wed 10:53:18 PM 42.3200 -78.3370 258° West 422 486 40,000  Level FlightAware ADS-B
Wed 10:54:02 PM 42.3000 -78.4530 257° West 422 486 40,000  Level FlightAware ADS-B
Wed 10:54:42 PM 42.2830 -78.5560 257° West 422 486 40,000  Level FlightAware ADS-B
Wed 10:55:27 PM 42.2630 -78.6740 257° West 424 488 40,000  Level FlightAware ADS-B
Wed 10:56:03 PM 42.2480 -78.7670 258° West 424 488 40,000  Level FlightAware ADS-B
Wed 10:56:51 PM 42.2300 -78.8720 257° West 427 491 40,000  Level FlightAware ADS-B
Wed 10:57:34 PM 42.2110 -78.9810 257° West 427 491 40,000  Level FlightAware ADS-B
Wed 10:58:09 PM 42.1950 -79.0740 257° West 427 491 40,000  Level FlightAware ADS-B
Wed 10:58:57 PM 42.1520 -79.1840 242° Southwest 429 494 40,000  Level FlightAware ADS-B
Wed 10:59:41 PM 42.0970 -79.2840 233° Southwest 429 494 40,000  Level FlightAware ADS-B
Wed 11:00:16 PM 42.0560 -79.3560 233° Southwest 430 495 40,000  Level FlightAware ADS-B
Wed 11:00:59 PM 42.0040 -79.4480 233° Southwest 431 496 40,000  Level FlightAware ADS-B
Wed 11:01:43 PM 41.9510 -79.5420 233° Southwest 432 497 40,000  Level FlightAware ADS-B
Wed 11:02:24 PM 41.8940 -79.6420 233° Southwest 434 499 40,000  Level FlightAware ADS-B
Wed 11:03:09 PM 41.8370 -79.7440 233° Southwest 435 501 40,000  Level FlightAware ADS-B
Wed 11:03:52 PM 41.7850 -79.8360 233° Southwest 435 501 40,000  Level FlightAware ADS-B
Wed 11:04:33 PM 41.7340 -79.9260 233° Southwest 436 502 40,000  Level FlightAware ADS-B
Wed 11:05:13 PM 41.6850 -80.0130 233° Southwest 435 501 40,000  Level FlightAware ADS-B
Wed 11:05:58 PM 41.6290 -80.1110 233° Southwest 436 502 40,000  Level FlightAware ADS-B
Wed 11:06:38 PM 41.5800 -80.1970 233° Southwest 435 501 40,000  Level FlightAware ADS-B
Wed 11:07:20 PM 41.5290 -80.2860 233° Southwest 436 502 40,000  Level FlightAware ADS-B
Wed 11:08:03 PM 41.4760 -80.3780 232° Southwest 437 503 40,000  Level FlightAware ADS-B
Wed 11:08:47 PM 41.4220 -80.4720 233° Southwest 437 503 40,000  Level FlightAware ADS-B
Wed 11:09:28 PM 41.3700 -80.5610 232° Southwest 437 503 40,000  Level FlightAware ADS-B
Wed 11:10:01 PM 41.3300 -80.6300 232° Southwest 437 503 40,000  Level FlightAware ADS-B
Wed 11:10:51 PM 41.2680 -80.7360 232° Southwest 437 503 40,000  Level FlightAware ADS-B
Wed 11:11:33 PM 41.2150 -80.8270 232° Southwest 437 503 40,000  Level FlightAware ADS-B
Wed 11:12:12 PM 41.1670 -80.9100 232° Southwest 436 502 40,000  Level FlightAware ADS-B
Wed 11:12:56 PM 41.1110 -81.0040 232° Southwest 436 502 40,000  Level FlightAware ADS-B
Wed 11:13:38 PM 41.0600 -81.0920 232° Southwest 435 501 40,000  Level FlightAware ADS-B
Wed 11:14:19 PM 41.0090 -81.1770 232° Southwest 436 502 40,000  Level FlightAware ADS-B
Wed 11:15:02 PM 40.9540 -81.2700 232° Southwest 435 501 40,000  Level FlightAware ADS-B
Wed 11:15:46 PM 40.9000 -81.3610 232° Southwest 435 501 40,000  Level FlightAware ADS-B
Wed 11:16:23 PM 40.8540 -81.4380 232° Southwest 434 499 40,000  Level FlightAware ADS-B
Wed 11:17:08 PM 40.7960 -81.5330 231° Southwest 434 499 40,000  Level FlightAware ADS-B
Wed 11:17:51 PM 40.7430 -81.6210 232° Southwest 436 502 40,000  Level FlightAware ADS-B
Wed 11:18:30 PM 40.6920 -81.7030 231° Southwest 437 503 40,000  Level FlightAware ADS-B
Wed 11:19:16 PM 40.6340 -81.7990 231° Southwest 437 503 40,000  Level FlightAware ADS-B
Wed 11:19:57 PM 40.5830 -81.8830 231° Southwest 438 504 40,000  Level FlightAware ADS-B
Wed 11:20:38 PM 40.5300 -81.9690 231° Southwest 437 503 40,000  Level FlightAware ADS-B
Wed 11:21:23 PM 40.4730 -82.0610 231° Southwest 436 502 40,000  Level FlightAware ADS-B
Wed 11:22:03 PM 40.4210 -82.1440 231° Southwest 435 501 40,000  Level FlightAware ADS-B
Wed 11:22:45 PM 40.3690 -82.2300 232° Southwest 433 498 40,000  Level FlightAware ADS-B
Wed 11:23:25 PM 40.3190 -82.3130 232° Southwest 431 496 40,000  Level FlightAware ADS-B
Wed 11:24:08 PM 40.2640 -82.4020 231° Southwest 431 496 40,000  Level FlightAware ADS-B
Wed 11:24:50 PM 40.2120 -82.4870 231° Southwest 429 494 40,000  Level FlightAware ADS-B
Wed 11:25:31 PM 40.1610 -82.5690 231° Southwest 428 493 40,000  Level FlightAware ADS-B
Wed 11:26:15 PM 40.1110 -82.6610 235° Southwest 426 490 40,000  Level FlightAware ADS-B
Wed 11:26:56 PM 40.0650 -82.7520 237° Southwest 425 489 40,000  Level FlightAware ADS-B
Wed 11:27:37 PM 40.0200 -82.8380 236° Southwest 425 489 40,000  Level FlightAware ADS-B
Wed 11:28:19 PM 39.9730 -82.9290 236° Southwest 425 489 40,000  Level FlightAware ADS-B
Wed 11:29:03 PM 39.9270 -83.0180 236° Southwest 426 490 40,000 -828 Level FlightAware ADS-B
Wed 11:29:46 PM 39.8750 -83.1160 235° Southwest 431 496 38,800 -1,239 Descending FlightAware ADS-B
Wed 11:30:35 PM 39.8250 -83.2100 235° Southwest 431 496 38,100 -2,188 Descending FlightAware ADS-B
Wed 11:31:22 PM 39.7670 -83.3220 236° Southwest 430 495 35,300 -2,933 Descending FlightAware ADS-B
Wed 11:32:05 PM 39.7190 -83.4120 235° Southwest 429 494 33,700 -2,143 Descending FlightAware ADS-B
Wed 11:32:46 PM 39.6730 -83.4990 236° Southwest 420 483 32,300 -1,952 Descending FlightAware ADS-B
Wed 11:33:28 PM 39.6270 -83.5850 235° Southwest 413 475 31,000 -1,423 Descending FlightAware ADS-B
Wed 11:34:23 PM 39.5680 -83.6950 235° Southwest 422 486 30,000 -660 Descending FlightAware ADS-B
Wed 11:35:08 PM 39.5150 -83.7940 235° Southwest 438 504 29,900 -207 Descending FlightAware ADS-B
Wed 11:35:50 PM 39.4720 -83.8720 234° Southwest 438 504 29,700 -2,047 Descending FlightAware ADS-B
Wed 11:36:33 PM 39.4170 -83.9750 235° Southwest 445 512 27,000 -3,388 Descending FlightAware ADS-B
Wed 11:37:15 PM 39.3660 -84.0680 235° Southwest 455 524 24,900 -1,950 Descending FlightAware ADS-B
Wed 11:37:53 PM 39.3240 -84.1430 234° Southwest 458 527 24,400 -405 Descending FlightAware ADS-B
Wed 11:38:29 PM 39.2860 -84.2110 234° Southwest 458 527 24,400  Level FlightAware ADS-B
Wed 11:39:18 PM 39.2340 -84.3030 234° Southwest 458 527 24,400 -176 Level FlightAware ADS-B
Wed 11:40:45 PM 39.1420 -84.4740 235° Southwest 397 457 24,000 -195 Descending FlightAware ADS-B
Wed 11:41:21 PM 39.1090 -84.5330 234° Southwest 397 457 24,000 -1,632 Level FlightAware ADS-B
Wed 11:42:50 PM 39.0080 -84.7150 235° Southwest 366 421 20,600 -1,619 Descending FlightAware ADS-B
Wed 11:43:27 PM 38.9740 -84.7690 231° Southwest 366 421 20,600  Level FlightAware ADS-B
Wed 11:44:15 PM 38.9310 -84.8380 231° Southwest 366 421 20,600  Level FlightAware ADS-B
Wed 11:44:52 PM 38.8970 -84.8910 231° Southwest 366 421 20,600  Level FlightAware ADS-B
Wed 11:45:29 PM 38.8630 -84.9440 231° Southwest 366 421 20,600  Level FlightAware ADS-B
Wed 11:46:17 PM 38.8200 -85.0130 231° Southwest 366 421 20,600 -4,545 Level FlightAware ADS-B
Wed 11:47:41 PM 38.6430 -85.0640 193° South 305 351 10,600 -4,839 Descending FlightAware ADS-B
Wed 11:48:21 PM 38.6040 -85.0990 215° Southwest 305 351 10,600 -1,183 Level FlightAware ADS-B
Wed 11:48:52 PM 38.5670 -85.1370 219° Southwest 271 312 9,200 -2,426 Descending FlightAware ADS-B
Wed 11:49:08 PM 38.5540 -85.1580 232° Southwest 270 311 8,700 -1,500 Descending FlightAware ADS-B
Wed 11:49:36 PM 38.5420 -85.1980 249° West 266 306 8,100 -1,500 Descending FlightAware ADS-B
Wed 11:50:16 PM 38.5250 -85.2590 250° West 261 300 7,000 -1,537 Descending FlightAware ADS-B
Wed 11:50:58 PM 38.5090 -85.3170 251° West 255 293 6,000 -1,179 Descending FlightAware ADS-B
Wed 11:51:12 PM 38.5040 -85.3370 252° West 255 293 5,900 -167 Descending FlightAware ADS-B
Wed 11:51:34 PM 38.4950 -85.3690 250° West 254 292 5,900  Level FlightAware ADS-B
Wed 11:52:08 PM 38.4820 -85.4190 252° West 253 291 5,900  Level FlightAware ADS-B
Wed 11:52:36 PM 38.4710 -85.4580 250° West 255 293 5,900  Level FlightAware ADS-B
Wed 11:52:52 PM 38.4640 -85.4810 249° West 255 293 5,900  Level FlightAware ADS-B
Wed 11:53:20 PM 38.4530 -85.5210 251° West 253 291 5,900  Level FlightAware ADS-B
Wed 11:53:46 PM 38.4440 -85.5550 251° West 234 269 5,900  Level FlightAware ADS-B
Wed 11:54:16 PM 38.4350 -85.5950 254° West 236 272 5,900 -286 Level FlightAware ADS-B
Wed 11:54:28 PM 38.4340 -85.6120 266° West 235 270 5,700 -1,571 Descending FlightAware ADS-B
Wed 11:54:58 PM 38.4310 -85.6540 265° West 228 262 4,800 -930 Descending FlightAware ADS-B
Wed 11:55:39 PM 38.4260 -85.7030 263° West 229 264 4,600 -1,084 Descending FlightAware ADS-B
Wed 11:56:21 PM 38.4170 -85.7490 256° West 193 222 3,300 -1,778 Descending FlightAware ADS-B
Wed 11:56:33 PM 38.4040 -85.7610 216° Southwest 175 201 3,000 -1,043 Descending FlightAware ADS-B
Wed 11:56:44 PM 38.3970 -85.7650 204° Southwest 163 188 2,900 -136 Descending FlightAware ADS-B
Wed 11:57:17 PM 38.3740 -85.7740 197° South 150 173 2,900  Level FlightAware ADS-B
Wed 11:57:45 PM 38.3540 -85.7790 191° South 152 175 2,900  Level FlightAware ADS-B
Wed 11:58:25 PM 38.3260 -85.7770 177° South 144 166 2,900 -107 Level FlightAware ADS-B
Wed 11:58:41 PM 38.3160 -85.7740 167° South 145 167 2,800 -267 Descending FlightAware ADS-B
Wed 11:59:10 PM 38.2970 -85.7690 168° South 137 158 2,700 -517 Descending FlightAware ADS-B
Wed 11:59:39 PM 38.2810 -85.7630 164° South 114 131 2,300 -679 Descending FlightAware ADS-B
Thu 12:00:03 AM 38.2690 -85.7590 165° South 104 120 2,100 -577 Descending FlightAware ADS-B
Thu 12:00:31 AM 38.2570 -85.7550 165° South 101 116 1,800 -536 Descending FlightAware ADS-B
Thu 12:00:59 AM 38.2440 -85.7510 166° South 100 115 1,600 -545 Descending FlightAware ADS-B
Thu 12:01:15 AM 38.2370 -85.7480 161° South 100 115 1,400 -545 Descending FlightAware ADS-B
Thu 12:01:43 AM 38.2240 -85.7440 166° South 99 114 1,200 -545 Descending FlightAware ADS-B
Thu 12:01:59 AM 38.2170 -85.7410 161° South 104 120 1,000 -600 Descending FlightAware ADS-B
Thu 12:02:23 AM 38.2060 -85.7380 168° South 107 123 800 -480 Descending FlightAware ADS-B
Thu 12:02:49 AM 38.1930 -85.7330 163° South 110 127 600 -444 Descending FlightAware ADS-B
Thu 12:03:17 AM 38.1790 -85.7290 167° South 117 135 400 -429 Descending FlightAware ADS-B
Thu 12:03:27 AM 38.1760 -85.7270 152° Southeast 74 85 -2,400 Descending FlightAware ADS-B
Thu 12:03:45 AM 38.1720 -85.7270 180° South 21 24  Level FlightAware ADS-B
Thu 12:03:55 AM 38.1710 -85.7270 180° South 21 24  Level FlightAware ADS-B
Thu 12:04:39 AM 38.1730 -85.7280 339° North 20 23  Level FlightAware ADS-B
Thu 12:05:00 AM 38.1750 -85.7290 339° North 17 20  Level FlightAware ADS-B
Thu 12:05:09 AM 38.1750 -85.7300 270° West 19 22  Level FlightAware ADS-B
Thu 12:05:40 AM 38.1760 -85.7340 288° West 24 28  Level FlightAware ADS-B
Thu 12:06:09 AM 38.1770 -85.7380 288° West 24 28  Level FlightAware ADS-B
Thu 12:06:24 AM 38.1780 -85.7400 302° West 24 28  Level FlightAware ADS-B
Thu 12:06:53 AM 38.1790 -85.7430 293° West 24 28  Level FlightAware ADS-B
Thu 12:07:33 AM 38.1770 -85.7430 180° South 26 30  Level FlightAware ADS-B
Thu 12:08:02 AM 38.1740 -85.7420 165° South 28 32  Level FlightAware ADS-B
Thu 12:08:29 AM 38.1730 -85.7420 180° South 22 25  Level FlightAware ADS-B
Thu 12:09:11 AM 38.1690 -85.7400 159° South 16 18  Level FlightAware ADS-B
Thu 12:09:31 AM 38.1680 -85.7400 180° South 33 38  Level FlightAware ADS-B
Thu 12:09:59 AM 38.1670 -85.7350 104° East 33 38  Level FlightAware ADS-B

Login

Don't have an account? Register now (free) for customized features, flight alerts, and more!